Time;durP1;ratioP1;P1;durP2;ratioP2;P2;SDS_P1;SDS_P2;PMS_P1;PMS_P2;Temp;Humidity;BMP_temperature;BMP_pressure;BME280_temperature;BME280_humidity;BME280_pressure;Samples;Min_cycle;Max_cycle;Signal;HPM_P1;HPM_P2
2023/04/09 00:00:34;;;;;;;81.50;74.00;;;;;;;4.23;93.04;98480.49;107007;1281;23106;-88
2023/04/09 00:03:22;;;;;;;78.20;70.80;;;;;;;4.14;93.35;98477.19;106970;1281;25227;-88
2023/04/09 00:05:51;;;;;;;83.40;75.80;;;;;;;4.02;93.36;98480.05;106998;1280;22610;-86
2023/04/09 00:08:19;;;;;;;70.40;63.80;;;;;;;3.93;93.55;98477.17;106904;1281;22646;-89
2023/04/09 00:10:47;;;;;;;69.00;62.50;;;;;;;3.85;93.37;98477.58;106794;1280;22531;-86
2023/04/09 00:13:15;;;;;;;65.60;59.60;;;;;;;3.82;93.70;98475.23;106848;1281;24194;-87
2023/04/09 00:15:55;;;;;;;64.60;58.80;;;;;;;3.83;93.63;98474.52;106853;1280;22524;-86
2023/04/09 00:18:23;;;;;;;66.20;59.90;;;;;;;3.84;93.59;98475.60;106917;1281;22523;-86
2023/04/09 00:20:51;;;;;;;68.90;62.50;;;;;;;3.89;94.13;98477.75;106972;1280;22638;-85
2023/04/09 00:23:19;;;;;;;69.00;62.90;;;;;;;3.91;94.01;98479.42;106968;1281;22638;-86
2023/04/09 00:25:47;;;;;;;60.80;55.50;;;;;;;3.91;94.17;98479.16;107028;1281;22620;-86
2023/04/09 00:28:15;;;;;;;66.00;60.00;;;;;;;3.91;93.91;98479.87;107099;1281;24340;-88
2023/04/09 00:30:43;;;;;;;64.00;58.30;;;;;;;3.92;94.18;98477.85;107299;1281;22696;-89
2023/04/09 00:33:11;;;;;;;61.50;56.20;;;;;;;3.96;94.22;98486.98;107474;1281;22522;-89
2023/04/09 00:35:39;;;;;;;61.80;56.60;;;;;;;3.99;94.28;98483.36;107112;1281;25856;-88
2023/04/09 00:38:09;;;;;;;57.30;52.20;;;;;;;4.01;94.07;98483.92;107089;1281;22532;-89
2023/04/09 00:40:37;;;;;;;63.00;57.50;;;;;;;3.99;94.07;98487.31;106721;1281;25408;-89
2023/04/09 00:43:05;;;;;;;64.10;58.50;;;;;;;3.93;93.75;98485.13;106567;1273;166938;-88
2023/04/09 00:45:34;;;;;;;61.40;55.90;;;;;;;3.87;93.68;98484.65;106721;1281;23014;-89
2023/04/09 00:48:02;;;;;;;64.50;58.60;;;;;;;3.83;93.95;98481.38;106931;1281;22741;-88
2023/04/09 00:50:30;;;;;;;63.50;58.00;;;;;;;3.82;93.92;98484.14;106851;1281;23134;-89
2023/04/09 00:52:59;;;;;;;87.90;79.30;;;;;;;3.82;93.91;98479.13;106888;1281;25369;-89
2023/04/09 00:55:29;;;;;;;67.30;61.40;;;;;;;3.82;93.85;98480.15;106840;1281;23458;-89
2023/04/09 00:57:57;;;;;;;62.20;56.60;;;;;;;3.83;94.03;98478.34;106933;1281;22643;-89
2023/04/09 01:00:26;;;;;;;72.40;65.90;;;;;;;3.79;93.77;98479.49;106744;1281;22845;-88
2023/04/09 01:02:57;;;;;;;77.10;70.20;;;;;;;3.70;94.11;98484.66;106885;1281;25540;-86
2023/04/09 01:05:57;;;;;;;69.30;63.20;;;;;;;3.61;94.27;98481.11;107055;1281;22561;-89
2023/04/09 01:08:45;;;;;;;58.40;53.30;;;;;;;3.59;93.94;98485.33;106812;1281;24852;-86
2023/04/09 01:11:28;;;;;;;69.20;63.30;;;;;;;3.55;94.02;98482.22;106760;1281;22584;-87
2023/04/09 01:14:18;;;;;;;60.60;55.40;;;;;;;3.58;94.32;98480.32;106842;1281;22592;-87
2023/04/09 01:17:03;;;;;;;54.20;49.50;;;;;;;3.56;94.06;98483.40;106773;1281;22574;-88
2023/04/09 01:20:00;;;;;;;54.80;50.20;;;;;;;3.51;94.19;98484.05;106853;1281;22747;-86
2023/04/09 01:22:56;;;;;;;54.30;49.80;;;;;;;3.41;93.93;98484.95;106922;1281;22536;-87
2023/04/09 01:25:29;;;;;;;56.00;51.30;;;;;;;3.31;94.09;98484.38;106827;1270;22682;-86
2023/04/09 01:28:07;;;;;;;63.10;58.00;;;;;;;3.22;94.02;98484.53;106868;1281;22552;-88
2023/04/09 01:30:36;;;;;;;42.80;39.30;;;;;;;3.19;94.23;98489.95;106842;1281;22553;-88
2023/04/09 01:33:05;;;;;;;41.50;38.90;;;;;;;3.18;94.92;98486.42;106915;1281;22629;-87
2023/04/09 01:35:33;;;;;;;42.60;39.00;;;;;;;3.18;94.80;98484.45;107004;1280;25339;-88
2023/04/09 01:38:03;;;;;;;43.20;39.50;;;;;;;3.21;94.57;98484.77;106942;1281;22611;-86
2023/04/09 01:40:31;;;;;;;47.80;43.70;;;;;;;3.18;94.65;98486.27;106927;1281;24247;-88
2023/04/09 01:43:01;;;;;;;49.00;44.80;;;;;;;3.13;95.11;98485.99;106978;1280;22558;-87
2023/04/09 01:45:29;;;;;;;49.20;44.80;;;;;;;3.06;95.13;98488.30;107171;1281;25394;-87
2023/04/09 01:47:57;;;;;;;50.10;45.70;;;;;;;2.99;95.42;98485.29;106934;1281;23834;-87
2023/04/09 01:50:26;;;;;;;45.60;41.70;;;;;;;2.95;95.54;98482.21;106811;1281;22575;-87
2023/04/09 01:52:55;;;;;;;48.80;44.60;;;;;;;2.94;95.82;98482.52;106773;1281;22612;-87
2023/04/09 01:55:23;;;;;;;48.90;44.40;;;;;;;2.95;95.93;98482.23;106936;1281;24446;-88
2023/04/09 01:57:51;;;;;;;49.70;45.40;;;;;;;2.96;95.70;98480.54;106902;1281;25369;-87
2023/04/09 02:00:19;;;;;;;55.80;50.70;;;;;;;2.97;96.06;98483.44;106868;1281;22652;-88
2023/04/09 02:02:59;;;;;;;56.70;51.70;;;;;;;2.94;96.85;98484.27;106933;1281;22566;-86
2023/04/09 02:05:32;;;;;;;53.80;49.00;;;;;;;2.91;96.51;98485.61;106953;1281;22584;-88
2023/04/09 02:08:03;;;;;;;55.00;50.20;;;;;;;2.94;96.47;98487.11;106932;1281;22807;-88
2023/04/09 02:10:34;;;;;;;52.70;48.40;;;;;;;2.97;96.34;98485.90;106734;1281;25568;-89
2023/04/09 02:13:05;;;;;;;51.30;46.60;;;;;;;3.01;96.09;98491.52;106841;1281;23000;-88
2023/04/09 02:15:37;;;;;;;54.70;50.00;;;;;;;3.06;95.94;98488.42;106821;1281;24254;-88
2023/04/09 02:18:20;;;;;;;56.10;51.20;;;;;;;3.10;96.29;98486.37;106753;1281;22712;-87
2023/04/09 02:20:48;;;;;;;57.60;52.30;;;;;;;3.14;96.38;98483.14;106824;1281;22527;-89
2023/04/09 02:23:16;;;;;;;64.90;58.90;;;;;;;3.18;96.20;98485.88;106868;1281;22654;-88
2023/04/09 02:25:44;;;;;;;53.40;48.40;;;;;;;3.22;96.11;98484.20;106948;1281;24390;-86
2023/04/09 02:28:13;;;;;;;51.50;47.10;;;;;;;3.22;96.10;98484.26;106941;1281;24220;-89
2023/04/09 02:30:41;;;;;;;52.90;48.20;;;;;;;3.25;96.35;98486.18;107403;1280;22535;-87
2023/04/09 02:33:09;;;;;;;53.80;49.00;;;;;;;3.30;96.53;98486.55;107456;1281;22598;-88
2023/04/09 02:35:37;;;;;;;56.60;51.90;;;;;;;3.30;96.71;98483.73;108109;1281;24381;-86
2023/04/09 02:38:12;;;;;;;50.20;46.00;;;;;;;3.28;96.80;98483.47;107494;1280;22561;-85
2023/04/09 02:40:41;;;;;;;49.10;45.00;;;;;;;3.23;97.60;98482.62;106924;1280;22541;-87
2023/04/09 02:43:09;;;;;;;48.80;44.30;;;;;;;3.17;98.17;98481.64;106946;1281;22545;-87
2023/04/09 02:45:37;;;;;;;48.00;43.80;;;;;;;3.12;98.55;98480.39;106873;1280;23332;-87
2023/04/09 02:48:05;;;;;;;48.30;44.30;;;;;;;3.09;98.44;98478.20;106919;1280;22751;-87
2023/04/09 02:50:35;;;;;;;48.30;44.20;;;;;;;3.09;98.59;98476.66;107286;1281;25632;-89
2023/04/09 02:53:03;;;;;;;48.90;44.50;;;;;;;3.08;98.52;98474.09;107431;1281;22538;-90
2023/04/09 02:55:31;;;;;;;46.30;42.30;;;;;;;3.08;98.81;98470.35;108408;1281;22637;-89
2023/04/09 02:57:59;;;;;;;46.50;42.50;;;;;;;3.12;98.38;98475.64;106894;1280;23643;-90
2023/04/09 03:00:27;;;;;;;48.40;44.30;;;;;;;3.15;98.21;98480.98;108427;1278;22536;-91
2023/04/09 03:02:56;;;;;;;54.50;49.60;;;;;;;3.19;98.43;98480.09;107154;1259;24303;-89
2023/04/09 03:05:25;;;;;;;56.00;51.30;;;;;;;3.25;98.18;98482.88;108499;1280;23374;-87
2023/04/09 03:07:53;;;;;;;54.90;50.10;;;;;;;3.29;98.41;98481.85;108844;1281;23032;-89
2023/04/09 03:10:21;;;;;;;52.50;48.20;;;;;;;3.36;98.11;98482.36;108992;1280;22551;-91
2023/04/09 03:12:49;;;;;;;53.10;48.40;;;;;;;3.43;97.94;98482.36;108674;1280;22977;-90
2023/04/09 03:15:17;;;;;;;54.50;49.60;;;;;;;3.50;97.95;98481.06;108994;1280;23958;-86
2023/04/09 03:17:46;;;;;;;55.40;50.50;;;;;;;3.59;97.86;98485.87;108619;1281;25275;-89
2023/04/09 03:20:14;;;;;;;61.20;55.90;;;;;;;3.66;97.89;98486.88;107763;1280;22962;-86
2023/04/09 03:22:42;;;;;;;60.60;55.50;;;;;;;3.67;97.90;98486.96;108354;1280;22715;-90
2023/04/09 03:25:20;;;;;;;52.30;47.60;;;;;;;3.70;97.79;98489.52;109193;1281;23240;-92
2023/04/09 03:27:52;;;;;;;53.00;48.40;;;;;;;3.74;97.70;98488.84;108964;1280;22531;-92
2023/04/09 03:30:28;;;;;;;48.30;44.10;;;;;;;3.76;97.75;98485.58;107680;1280;22606;-90
2023/04/09 03:33:00;;;;;;;53.70;48.90;;;;;;;3.72;98.88;98484.09;107434;1280;22590;-90
2023/04/09 03:35:29;;;;;;;58.70;53.40;;;;;;;3.61;99.46;98481.78;107219;1280;24449;-93
2023/04/09 03:37:58;;;;;;;50.70;46.10;;;;;;;3.49;99.62;98479.55;107110;1280;22533;-89
2023/04/09 03:40:27;;;;;;;54.50;49.60;;;;;;;3.41;99.60;98485.36;107191;1280;22622;-91
2023/04/09 03:42:54;;;;;;;50.20;45.70;;;;;;;3.39;98.83;98486.67;106924;1280;24237;-88
2023/04/09 03:45:22;;;;;;;51.50;47.00;;;;;;;3.44;98.76;98486.59;106821;1281;22532;-89
2023/04/09 03:47:51;;;;;;;55.20;50.40;;;;;;;3.51;99.01;98484.81;106971;1280;22784;-91
2023/04/09 03:50:22;;;;;;;54.00;49.30;;;;;;;3.55;98.91;98488.45;107142;1280;22639;-88
2023/04/09 03:52:53;;;;;;;64.50;58.70;;;;;;;3.54;99.09;98490.58;107426;1280;22540;-91
2023/04/09 03:55:22;;;;;;;58.00;52.90;;;;;;;3.56;98.96;98487.30;107009;1281;24167;-90
2023/04/09 03:57:51;;;;;;;56.60;51.40;;;;;;;3.55;98.97;98490.27;107166;1280;23033;-91
2023/04/09 04:00:19;;;;;;;56.70;51.70;;;;;;;3.54;99.33;98487.05;108432;1281;24213;-92
2023/04/09 04:02:51;;;;;;;49.10;44.60;;;;;;;3.56;99.19;98489.42;108750;1281;25929;-91
2023/04/09 04:05:29;;;;;;;46.40;42.30;;;;;;;3.59;99.22;98487.36;107739;1281;22723;-91
2023/04/09 04:07:58;;;;;;;40.80;37.40;;;;;;;3.67;98.96;98492.14;107591;1280;24838;-90
2023/04/09 04:10:27;;;;;;;42.40;38.90;;;;;;;3.69;99.11;98493.45;107824;1281;22894;-87
2023/04/09 04:12:55;;;;;;;49.80;45.50;;;;;;;3.72;99.55;98497.40;107276;1280;22590;-85
2023/04/09 04:15:41;;;;;;;50.60;46.20;;;;;;;3.74;99.39;98494.71;107167;1280;22541;-91
2023/04/09 04:18:09;;;;;;;42.70;39.00;;;;;;;3.76;99.11;98491.48;107212;1280;22535;-91
2023/04/09 04:20:42;;;;;;;40.90;37.20;;;;;;;3.72;99.69;98494.21;107956;1280;22654;-89
2023/04/09 04:23:14;;;;;;;45.30;41.20;;;;;;;3.79;99.98;98491.17;109474;1257;22596;-86
2023/04/09 04:25:51;;;;;;;47.70;43.20;;;;;;;3.95;99.94;98491.19;109225;1255;22551;-90
2023/04/09 04:28:30;;;;;;;48.60;44.30;;;;;;;4.01;99.87;98497.26;109759;1250;22511;31
2023/04/09 04:30:58;;;;;;;46.50;42.50;;;;;;;4.04;99.37;98502.91;101536;1261;25337;-92
2023/04/09 04:33:28;;;;;;;46.50;42.50;;;;;;;4.06;98.99;98501.62;107432;1280;22574;-90
2023/04/09 04:36:10;;;;;;;52.10;47.10;;;;;;;4.05;99.52;98501.33;108457;1279;22843;-91
2023/04/09 04:38:45;;;;;;;48.30;44.00;;;;;;;4.01;99.52;98495.44;108535;1281;22560;-88
2023/04/09 04:41:45;;;;;;;50.40;45.50;;;;;;;4.10;99.57;98503.13;109318;1281;22565;-90
2023/04/09 04:44:21;;;;;;;46.70;42.40;;;;;;;4.14;99.57;98506.21;109852;1280;22610;-87
2023/04/09 04:46:54;;;;;;;42.90;39.00;;;;;;;4.16;99.71;98506.62;109670;1280;22558;-87
2023/04/09 04:49:21;;;;;;;42.60;38.80;;;;;;;4.19;99.37;98510.26;109828;1280;22718;-85
2023/04/09 04:51:51;;;;;;;43.40;39.70;;;;;;;4.23;99.71;98509.02;108907;1280;23099;-86
2023/04/09 04:54:19;;;;;;;45.10;41.00;;;;;;;4.23;99.57;98508.77;109256;1281;22561;-91
2023/04/09 04:56:51;;;;;;;45.70;41.70;;;;;;;4.26;99.68;98509.84;109182;1281;22554;-89
2023/04/09 04:59:39;;;;;;;47.00;42.90;;;;;;;4.32;99.43;98510.89;108554;1281;22579;-88
2023/04/09 05:06:04;;;;;;;40.20;36.70;;;;;;;4.44;99.73;98515.65;107568;1281;22589;-87
2023/04/09 05:08:39;;;;;;;39.00;35.50;;;;;;;4.43;99.63;98510.20;106926;1281;22544;-87
2023/04/09 05:11:11;;;;;;;40.10;36.70;;;;;;;4.42;99.79;98511.89;107116;1281;23867;-85
2023/04/09 05:13:40;;;;;;;44.40;40.50;;;;;;;4.44;99.81;98513.73;107014;1281;25456;-86
2023/04/09 05:16:16;;;;;;;45.90;41.80;;;;;;;4.45;99.94;98515.14;106954;1281;25229;-86
2023/04/09 05:18:47;;;;;;;43.40;39.70;;;;;;;4.48;99.73;98514.11;106990;1281;23794;-86
2023/04/09 05:21:15;;;;;;;41.10;37.50;;;;;;;4.53;99.72;98515.54;106999;1281;23294;-86
2023/04/09 05:23:44;;;;;;;46.20;42.10;;;;;;;4.61;99.80;98512.55;106916;1281;22527;-87
2023/04/09 05:26:12;;;;;;;50.30;45.90;;;;;;;4.67;99.74;98514.61;107036;1281;23183;-87
2023/04/09 05:28:49;;;;;;;49.10;44.70;;;;;;;4.70;99.86;98515.67;106661;1281;22643;-89
2023/04/09 05:31:18;;;;;;;49.50;45.30;;;;;;;4.75;99.98;98516.96;107064;1281;25421;-90
2023/04/09 05:33:59;;;;;;;49.80;45.10;;;;;;;4.81;99.89;98520.20;106915;1281;23166;-90
2023/04/09 05:36:37;;;;;;;67.50;61.20;;;;;;;4.85;99.84;98522.44;106961;1280;22638;-87
2023/04/09 05:39:05;;;;;;;64.20;58.30;;;;;;;4.89;99.71;98519.84;107082;1280;22657;-88
2023/04/09 05:41:36;;;;;;;57.80;52.50;;;;;;;4.94;99.61;98520.33;107068;1280;23977;-88
2023/04/09 05:44:36;;;;;;;73.10;66.70;;;;;;;5.01;99.70;98523.08;106815;1280;23264;-87
2023/04/09 05:47:15;;;;;;;75.40;67.80;;;;;;;5.06;99.71;98523.75;107061;1280;22697;-87
2023/04/09 05:49:55;;;;;;;74.70;68.20;;;;;;;5.08;99.75;98525.59;107106;1270;22700;-86
2023/04/09 05:52:23;;;;;;;77.10;70.40;;;;;;;5.11;99.92;98529.48;107065;1280;22547;-86
2023/04/09 05:54:51;;;;;;;76.20;69.20;;;;;;;5.16;99.86;98531.45;106917;1280;26649;-85
2023/04/09 05:57:24;;;;;;;72.50;65.30;;;;;;;5.18;99.63;98531.65;107072;1280;25349;-87
2023/04/09 05:59:57;;;;;;;74.10;67.70;;;;;;;5.18;99.43;98535.94;107098;1280;23939;-89
2023/04/09 06:02:25;;;;;;;73.90;67.40;;;;;;;5.21;99.72;98533.77;107009;1280;24210;-88
2023/04/09 06:04:54;;;;;;;76.90;69.70;;;;;;;5.21;99.60;98532.96;107165;1281;25995;-91
2023/04/09 06:07:22;;;;;;;77.00;70.10;;;;;;;5.17;99.36;98534.89;107202;1280;22557;-89
2023/04/09 06:09:50;;;;;;;72.90;65.90;;;;;;;5.20;99.94;98533.06;107210;1281;24354;-90
2023/04/09 06:12:18;;;;;;;69.80;63.20;;;;;;;5.26;99.79;98536.29;107209;1280;24904;-89
2023/04/09 06:14:49;;;;;;;69.30;63.00;;;;;;;5.30;99.31;98541.90;107215;1280;25795;-91
2023/04/09 06:17:18;;;;;;;71.40;65.30;;;;;;;5.32;99.53;98540.73;107480;1280;22534;-90
2023/04/09 06:19:46;;;;;;;71.20;65.00;;;;;;;5.34;99.53;98538.03;107236;1280;22587;-92
2023/04/09 06:22:14;;;;;;;69.20;62.20;;;;;;;5.39;99.79;98535.80;107071;1280;22615;-90
2023/04/09 06:24:42;;;;;;;67.40;61.30;;;;;;;5.48;99.98;98537.57;107022;1280;22541;-86
2023/04/09 06:27:10;;;;;;;64.80;59.00;;;;;;;5.60;99.90;98539.67;107055;1280;22581;-87
2023/04/09 06:29:38;;;;;;;63.80;58.10;;;;;;;5.70;99.84;98544.98;107029;1281;22527;-88
2023/04/09 06:32:06;;;;;;;67.50;60.80;;;;;;;5.78;99.74;98547.42;107045;1280;24085;-89
2023/04/09 06:34:34;;;;;;;65.70;60.00;;;;;;;5.84;99.79;98543.42;107106;1280;24080;-88
2023/04/09 06:37:02;;;;;;;62.80;57.20;;;;;;;5.88;99.94;98545.97;107351;1280;22774;-87
2023/04/09 06:39:31;;;;;;;60.10;54.60;;;;;;;5.93;99.73;98546.20;107030;1280;25274;-87
2023/04/09 06:42:00;;;;;;;58.80;53.40;;;;;;;6.02;99.84;98551.23;106835;1280;24349;-87
2023/04/09 06:44:37;;;;;;;66.70;60.00;;;;;;;6.09;99.69;98547.81;106824;1280;22545;-85
2023/04/09 06:47:07;;;;;;;70.00;63.70;;;;;;;6.15;99.88;98552.67;106957;1280;24405;-83
2023/04/09 06:49:35;;;;;;;83.70;76.10;;;;;;;6.19;99.90;98550.52;106950;1280;25477;-88
2023/04/09 06:52:04;;;;;;;75.80;68.50;;;;;;;6.22;99.77;98553.70;106976;1280;24055;-85
2023/04/09 06:54:32;;;;;;;70.50;64.30;;;;;;;6.20;99.63;98557.48;107015;1280;25284;-87
2023/04/09 06:57:00;;;;;;;65.20;59.30;;;;;;;6.22;99.75;98556.98;106946;1280;24586;-86
2023/04/09 06:59:28;;;;;;;62.10;56.50;;;;;;;6.24;99.36;98560.80;106938;1280;25332;-85
2023/04/09 07:01:56;;;;;;;65.50;59.40;;;;;;;6.26;99.32;98563.31;106879;1280;23319;-86
2023/04/09 07:04:24;;;;;;;64.30;58.20;;;;;;;6.25;99.30;98563.10;106925;1280;23753;-85
2023/04/09 07:06:54;;;;;;;63.70;58.00;;;;;;;6.24;98.96;98566.99;106875;1280;24269;-85
2023/04/09 07:09:22;;;;;;;58.50;53.20;;;;;;;6.23;99.29;98565.16;106868;1280;23898;-87
2023/04/09 07:11:50;;;;;;;62.60;56.90;;;;;;;6.25;99.10;98567.77;106875;1280;24336;-88
2023/04/09 07:14:18;;;;;;;58.40;53.20;;;;;;;6.30;99.19;98568.30;106863;1280;22520;-86
2023/04/09 07:16:46;;;;;;;60.20;54.40;;;;;;;6.37;99.21;98566.42;106904;1280;22737;-87
2023/04/09 07:19:14;;;;;;;59.70;54.30;;;;;;;6.46;99.33;98568.90;106805;1280;23766;-87
2023/04/09 07:21:42;;;;;;;61.10;55.60;;;;;;;6.52;99.17;98566.59;106856;1280;23470;-86
2023/04/09 07:24:10;;;;;;;66.90;60.80;;;;;;;6.53;99.10;98563.89;106878;1280;22555;-85
2023/04/09 07:26:38;;;;;;;66.30;60.00;;;;;;;6.57;98.79;98564.17;107004;1280;24320;-88
2023/04/09 07:29:07;;;;;;;72.30;64.80;;;;;;;6.63;98.86;98566.58;107082;1280;23341;-85
2023/04/09 07:31:35;;;;;;;60.90;55.00;;;;;;;6.68;98.52;98573.41;107475;1280;23375;-87
2023/04/09 07:34:03;;;;;;;55.60;50.10;;;;;;;6.77;98.60;98573.48;107439;1280;24520;-87
2023/04/09 07:36:31;;;;;;;54.00;48.90;;;;;;;6.78;97.17;98571.51;107731;1280;25284;-89
2023/04/09 07:38:59;;;;;;;57.20;51.40;;;;;;;6.72;96.40;98575.21;107377;1280;22527;-89
2023/04/09 07:41:27;;;;;;;51.80;47.00;;;;;;;6.67;94.89;98575.02;107615;1280;22713;-90
2023/04/09 07:43:55;;;;;;;53.60;48.30;;;;;;;6.62;95.03;98571.33;107793;1280;24438;-89
2023/04/09 07:46:23;;;;;;;56.60;51.20;;;;;;;6.62;94.58;98569.63;107817;1280;22205;-86
2023/04/09 07:48:51;;;;;;;56.90;51.30;;;;;;;6.65;95.23;98567.67;110043;1280;22577;-86
2023/04/09 07:51:24;;;;;;;56.30;49.10;;;;;;;6.72;95.24;98570.61;109973;1280;22338;-86
2023/04/09 07:53:53;;;;;;;55.00;49.40;;;;;;;6.84;95.51;98568.66;107288;1280;22710;-89
2023/04/09 07:56:21;;;;;;;52.40;47.30;;;;;;;6.97;95.70;98574.63;107380;1280;22776;-88
2023/04/09 07:58:50;;;;;;;51.90;47.00;;;;;;;7.10;95.46;98570.20;107237;1280;24235;-89
2023/04/09 08:01:23;;;;;;;48.40;43.80;;;;;;;7.16;94.51;98575.12;107269;1280;22469;-88
2023/04/09 08:03:51;;;;;;;48.60;44.10;;;;;;;7.17;93.84;98572.82;107180;1280;25408;-87
2023/04/09 08:06:19;;;;;;;46.90;42.20;;;;;;;7.18;94.26;98573.53;107342;1280;22629;-87
2023/04/09 08:08:47;;;;;;;49.00;44.10;;;;;;;7.26;94.07;98575.08;107386;1280;22566;-88
2023/04/09 08:11:20;;;;;;;48.50;43.40;;;;;;;7.32;93.98;98575.14;107193;1280;22855;-87
2023/04/09 08:13:48;;;;;;;51.10;45.70;;;;;;;7.40;93.56;98575.36;107094;1281;24171;-87
2023/04/09 08:16:17;;;;;;;49.70;44.80;;;;;;;7.43;93.19;98579.39;106943;1280;24347;-86
2023/04/09 08:18:45;;;;;;;52.60;45.00;;;;;;;7.51;93.67;98582.33;106944;1280;22661;-87
2023/04/09 08:21:13;;;;;;;45.90;41.40;;;;;;;7.65;93.01;98580.28;106891;1280;22646;-87
2023/04/09 08:23:41;;;;;;;44.10;40.00;;;;;;;7.72;91.69;98577.85;106902;1280;25351;-85
2023/04/09 08:26:09;;;;;;;44.80;40.20;;;;;;;7.72;91.34;98572.10;107063;1280;22534;-87
2023/04/09 08:28:37;;;;;;;45.00;40.30;;;;;;;7.82;90.34;98578.83;106904;1280;22737;-84
2023/04/09 08:31:05;;;;;;;42.90;38.80;;;;;;;7.89;90.55;98579.83;106829;1280;22656;-85
2023/04/09 08:33:33;;;;;;;41.30;37.30;;;;;;;8.07;91.26;98577.94;106730;1280;24416;-83
2023/04/09 08:36:01;;;;;;;43.30;38.70;;;;;;;8.17;89.65;98580.09;106916;1280;26030;-82
2023/04/09 08:38:30;;;;;;;44.10;39.60;;;;;;;8.23;89.51;98584.03;106914;1280;24444;-86
2023/04/09 08:40:59;;;;;;;41.50;37.50;;;;;;;8.30;89.16;98586.19;106878;1280;22605;-85
2023/04/09 08:43:27;;;;;;;40.80;37.10;;;;;;;8.27;88.14;98584.30;106692;1280;25370;-85
2023/04/09 08:46:20;;;;;;;40.70;36.60;;;;;;;8.30;87.23;98584.42;108367;1280;22560;-83
2023/04/09 08:48:51;;;;;;;41.10;37.40;;;;;;;8.27;87.40;98583.14;109860;1274;22232;-84
2023/04/09 08:51:21;;;;;;;45.10;40.70;;;;;;;8.29;87.13;98582.69;107723;1280;22531;-85
2023/04/09 08:54:00;;;;;;;37.70;34.20;;;;;;;8.37;88.63;98581.42;106797;1280;22663;-82
2023/04/09 08:56:31;;;;;;;37.20;33.40;;;;;;;8.74;88.97;98583.82;106970;1280;24284;-82
2023/04/09 08:58:59;;;;;;;45.00;40.20;;;;;;;9.06;89.95;98583.45;106870;1280;22521;-82
2023/04/09 09:01:29;;;;;;;40.50;36.30;;;;;;;9.31;88.06;98586.20;106951;1280;22528;-83
2023/04/09 09:03:58;;;;;;;34.20;31.00;;;;;;;9.40;87.75;98588.00;107061;1280;22628;-83
2023/04/09 09:06:30;;;;;;;36.30;32.50;;;;;;;9.88;89.45;98588.23;106934;1280;24387;-82
2023/04/09 09:09:12;;;;;;;38.40;33.20;;;;;;;10.29;89.18;98583.92;106851;1280;22686;-83
2023/04/09 09:11:49;;;;;;;36.80;32.90;;;;;;;10.61;87.37;98589.20;106980;1280;23517;-83
2023/04/09 09:14:18;;;;;;;35.60;32.30;;;;;;;10.61;87.53;98589.90;106988;1280;24259;-84
2023/04/09 09:16:56;;;;;;;35.50;32.10;;;;;;;10.61;87.07;98591.63;107115;1280;24019;-84
2023/04/09 09:19:24;;;;;;;36.90;33.10;;;;;;;10.56;85.96;98590.27;107282;1280;22651;-84
2023/04/09 09:21:58;;;;;;;35.90;32.70;;;;;;;10.58;85.30;98593.42;107000;1280;24348;-84
2023/04/09 09:24:26;;;;;;;38.20;34.30;;;;;;;10.44;83.57;98592.08;107063;1280;22571;-86
2023/04/09 09:26:56;;;;;;;36.30;33.00;;;;;;;10.19;84.09;98595.88;107098;1280;25793;-88
2023/04/09 09:29:24;;;;;;;35.20;32.00;;;;;;;10.07;83.34;98592.02;106993;1280;25363;-86
2023/04/09 09:31:55;;;;;;;36.40;31.30;;;;;;;9.93;83.55;98599.14;106866;1280;22772;-85
2023/04/09 09:34:24;;;;;;;34.20;31.20;;;;;;;9.85;83.00;98596.59;107072;1280;22490;-84
2023/04/09 09:36:52;;;;;;;36.50;33.20;;;;;;;9.76;81.48;98595.83;106928;1280;22602;-86
2023/04/09 09:39:21;;;;;;;35.10;32.00;;;;;;;9.65;81.66;98596.20;106947;1280;22651;-86
2023/04/09 09:42:06;;;;;;;36.70;33.40;;;;;;;9.68;82.61;98595.86;106925;1280;23229;-86
2023/04/09 09:44:35;;;;;;;36.40;33.10;;;;;;;9.66;81.83;98595.97;106919;1280;22604;-83
2023/04/09 09:47:04;;;;;;;33.90;30.90;;;;;;;9.63;81.65;98593.14;106712;1280;22535;-83
2023/04/09 09:49:32;;;;;;;33.40;30.10;;;;;;;9.55;81.22;98591.72;106998;1280;22535;-85
2023/04/09 09:52:05;;;;;;;30.50;27.80;;;;;;;9.50;81.23;98593.66;106950;1280;22548;-85
2023/04/09 09:54:40;;;;;;;32.20;29.00;;;;;;;9.42;81.00;98590.42;106999;1280;22524;-86
2023/04/09 09:57:09;;;;;;;33.90;30.80;;;;;;;9.33;79.50;98589.47;106994;1280;22527;-81
2023/04/09 09:59:42;;;;;;;33.70;30.70;;;;;;;9.19;80.12;98588.70;106887;1280;23295;-80
2023/04/09 10:02:19;;;;;;;32.20;29.40;;;;;;;9.16;79.94;98589.25;106909;1280;24407;-83
2023/04/09 10:04:51;;;;;;;30.80;28.00;;;;;;;9.04;79.60;98589.21;106993;1280;25109;-82
2023/04/09 10:07:23;;;;;;;30.40;27.50;;;;;;;8.96;79.51;98586.42;107103;1280;22540;-81
2023/04/09 10:09:53;;;;;;;32.90;30.00;;;;;;;8.87;79.53;98587.72;106984;1280;24381;-82
2023/04/09 10:12:24;;;;;;;34.40;31.40;;;;;;;8.82;80.24;98586.88;106916;1280;25339;-82
2023/04/09 10:14:57;;;;;;;33.30;30.10;;;;;;;8.84;80.65;98583.48;106878;1280;22557;-82
2023/04/09 10:17:25;;;;;;;31.50;28.60;;;;;;;8.84;80.11;98581.39;106931;1280;25368;-82
2023/04/09 10:20:17;;;;;;;34.30;31.10;;;;;;;8.83;80.42;98579.84;106967;1280;22654;-82
2023/04/09 10:22:48;;;;;;;30.70;28.00;;;;;;;8.87;81.51;98577.83;106840;1280;25527;-81
2023/04/09 10:25:16;;;;;;;29.90;27.20;;;;;;;9.00;81.75;98574.17;107061;1280;23185;-79
2023/04/09 10:27:45;;;;;;;31.60;28.70;;;;;;;9.19;81.01;98573.16;107164;1280;24227;-81
2023/04/09 10:30:33;;;;;;;32.20;29.20;;;;;;;9.21;81.55;98569.02;107551;1280;23559;-81
2023/04/09 10:33:12;;;;;;;33.70;30.70;;;;;;;9.31;81.57;98567.60;108162;1280;23361;-81
2023/04/09 10:35:42;;;;;;;32.00;29.10;;;;;;;9.33;80.63;98566.34;108442;1280;22567;-81
2023/04/09 10:38:13;;;;;;;34.00;31.00;;;;;;;9.30;80.76;98560.70;108182;1280;22581;-80
2023/04/09 10:40:50;;;;;;;34.30;31.30;;;;;;;9.39;81.47;98559.61;107647;1280;22571;-81
2023/04/09 10:43:18;;;;;;;32.20;28.90;;;;;;;9.55;80.84;98561.91;106929;1280;24374;-88
2023/04/09 10:45:52;;;;;;;29.60;27.10;;;;;;;9.68;81.32;98561.05;109001;1280;22570;-84
2023/04/09 10:48:24;;;;;;;35.30;32.20;;;;;;;9.81;80.48;98560.89;109674;1280;22677;-86
2023/04/09 10:50:52;;;;;;;32.20;29.20;;;;;;;9.83;80.06;98560.00;106897;1280;24255;-83
2023/04/09 10:53:22;;;;;;;29.40;26.80;;;;;;;9.82;79.08;98562.64;106816;1280;22556;-84
2023/04/09 10:55:52;;;;;;;30.40;27.50;;;;;;;9.71;79.06;98560.92;106805;1280;22705;-85
2023/04/09 10:58:20;;;;;;;29.80;27.20;;;;;;;9.68;80.56;98556.52;106856;1280;25336;-82
2023/04/09 11:00:50;;;;;;;31.00;28.30;;;;;;;9.73;79.23;98556.98;106916;1280;22788;-85
2023/04/09 11:03:31;;;;;;;29.40;26.70;;;;;;;9.67;78.21;98559.42;106901;1280;22532;-86
2023/04/09 11:06:10;;;;;;;30.20;27.50;;;;;;;9.57;78.99;98554.46;106995;1280;22518;-85
2023/04/09 11:08:40;;;;;;;30.50;27.80;;;;;;;9.51;79.59;98557.99;106955;1280;22524;-90
2023/04/09 11:11:09;;;;;;;33.80;30.60;;;;;;;9.50;79.17;98556.02;107388;1280;22651;-88
2023/04/09 11:13:37;;;;;;;32.60;29.70;;;;;;;9.45;78.35;98555.77;106952;1280;22516;-81
2023/04/09 11:16:05;;;;;;;34.80;31.60;;;;;;;9.38;78.84;98560.61;106845;1280;24331;-82
2023/04/09 11:18:35;;;;;;;32.00;29.00;;;;;;;9.36;79.22;98559.50;106938;1280;22531;-81
2023/04/09 11:21:04;;;;;;;31.50;28.60;;;;;;;9.39;79.94;98557.23;107161;1280;22555;-84
2023/04/09 11:23:33;;;;;;;32.40;29.50;;;;;;;9.49;80.07;98557.27;107343;1280;22828;-85
2023/04/09 11:26:01;;;;;;;33.60;30.60;;;;;;;9.54;80.03;98552.23;107366;1280;22683;-83
2023/04/09 11:28:29;;;;;;;32.90;29.80;;;;;;;9.63;80.37;98556.91;106933;1278;25291;-86
2023/04/09 11:30:57;;;;;;;34.40;31.10;;;;;;;9.74;80.40;98552.45;106909;1280;22569;-84
2023/04/09 11:33:33;;;;;;;32.50;29.70;;;;;;;9.84;80.14;98552.13;107175;1280;22485;-89
2023/04/09 11:36:04;;;;;;;34.70;31.70;;;;;;;9.92;79.83;98555.69;107094;1280;22748;-90
2023/04/09 11:38:32;;;;;;;31.90;29.00;;;;;;;9.98;78.48;98550.91;108978;1280;22524;-88